Terminal Aerodrome Forecast
Issued by NWS

Home | Current Version | Previous Version | Text Only | Print | Product List | Glossary On
Versions: 1 2 3 4 5 6 7 8 9 10 11 12 13 14 15
000
FTUS46 KSTO 242333
TAFSCK
TAF
KSCK 242333Z 2500/2524 28010G19KT P6SM SCT250
     FM250400 31013KT P6SM BKN100
     FM250900 27007KT P6SM -SHRA OVC050
      TEMPO 2510/2514 -RA OVC015
     FM251800 13005KT P6SM OVC050=

USA.gov is the U.S. government's official web portal to all federal, state and local government web resources and services.